Time;durP1;ratioP1;P1;durP2;ratioP2;P2;SDS_P1;SDS_P2;PMS_P1;PMS_P2;Temp;Humidity;BMP_temperature;BMP_pressure;BME280_temperature;BME280_humidity;BME280_pressure;Samples;Min_cycle;Max_cycle;Signal;HPM_P1;HPM_P2
2022/11/18 00:01:17;;;;;;;2.58;0.80;;;;;;;;;;5034130;28;20056;-73
2022/11/18 00:03:43;;;;;;;0.88;0.80;;;;;;;;;;5036037;28;20564;-77
2022/11/18 00:06:15;;;;;;;2.45;0.80;;;;;;;;;;5038166;28;20742;-77
2022/11/18 00:08:41;;;;;;;1.48;0.85;;;;;;;;;;5031204;28;20102;-75
2022/11/18 00:14:21;;;;;;;4.45;0.80;;;;;;;;;;5039974;28;20052;-72
2022/11/18 00:16:55;;;;;;;3.05;0.98;;;;;;;;;;5039124;28;20548;-74
2022/11/18 00:19:24;;;;;;;2.20;0.80;;;;;;;;;;5040145;28;20091;-78
2022/11/18 00:21:50;;;;;;;1.48;0.98;;;;;;;;;;5042330;28;20685;-74
2022/11/18 00:24:17;;;;;;;2.50;0.90;;;;;;;;;;5042258;28;20061;-76
2022/11/18 00:26:43;;;;;;;3.25;0.82;;;;;;;;;;5037079;28;20036;-75
2022/11/18 00:29:10;;;;;;;2.42;0.88;;;;;;;;;;5033273;28;20442;-71
2022/11/18 00:31:37;;;;;;;1.77;0.80;;;;;;;;;;5033881;28;20103;-72
2022/11/18 00:34:02;;;;;;;5.22;0.98;;;;;;;;;;5037911;28;20041;-73
2022/11/18 00:36:29;;;;;;;2.30;0.80;;;;;;;;;;5038867;28;20974;-70
2022/11/18 00:38:54;;;;;;;1.67;0.77;;;;;;;;;;5038194;28;20076;-72
2022/11/18 00:41:21;;;;;;;2.95;0.90;;;;;;;;;;5033614;28;20056;-70
2022/11/18 00:43:46;;;;;;;2.85;0.95;;;;;;;;;;5042333;28;20059;-72
2022/11/18 00:46:13;;;;;;;2.85;1.00;;;;;;;;;;5033460;28;20045;-71
2022/11/18 00:48:39;;;;;;;2.38;0.80;;;;;;;;;;5032861;28;20048;-76
2022/11/18 00:51:17;;;;;;;4.35;1.00;;;;;;;;;;5037889;28;20459;-74
2022/11/18 00:53:43;;;;;;;3.53;1.00;;;;;;;;;;5037227;28;20068;-73
2022/11/18 00:56:10;;;;;;;1.10;0.70;;;;;;;;;;5033340;28;20106;-71
2022/11/18 00:58:36;;;;;;;6.88;1.17;;;;;;;;;;5034089;28;20183;-69
2022/11/18 01:01:03;;;;;;;2.10;0.90;;;;;;;;;;5035847;28;20082;-73
2022/11/18 01:03:29;;;;;;;5.53;0.90;;;;;;;;;;5034119;28;20364;-71
2022/11/18 01:05:55;;;;;;;5.05;1.15;;;;;;;;;;5036986;28;20060;-75
2022/11/18 01:08:21;;;;;;;3.50;0.95;;;;;;;;;;5036735;28;20045;-70
2022/11/18 01:10:48;;;;;;;2.22;0.85;;;;;;;;;;5039314;28;20575;-73
2022/11/18 01:13:20;;;;;;;3.75;1.02;;;;;;;;;;5034694;28;20056;-73
2022/11/18 01:15:55;;;;;;;2.53;0.90;;;;;;;;;;5031303;28;20076;-71
2022/11/18 01:18:24;;;;;;;6.07;1.30;;;;;;;;;;5030581;28;20148;-76
2022/11/18 01:20:51;;;;;;;3.78;1.33;;;;;;;;;;5036361;28;20068;-72
2022/11/18 01:23:19;;;;;;;2.83;1.10;;;;;;;;;;5036937;28;20055;-78
2022/11/18 01:25:47;;;;;;;5.85;1.20;;;;;;;;;;5034335;28;20099;-75
2022/11/18 01:28:13;;;;;;;4.20;1.05;;;;;;;;;;5031716;28;20172;-75
2022/11/18 01:30:40;;;;;;;4.15;1.25;;;;;;;;;;5023243;28;20063;-75
2022/11/18 01:33:07;;;;;;;5.45;1.58;;;;;;;;;;5034616;28;20037;-72
2022/11/18 01:35:38;;;;;;;7.47;1.30;;;;;;;;;;5020412;28;20115;-69
2022/11/18 01:38:05;;;;;;;6.68;1.15;;;;;;;;;;5032115;28;20607;-69
2022/11/18 01:40:32;;;;;;;5.43;1.38;;;;;;;;;;5035311;28;20048;-70
2022/11/18 01:42:58;;;;;;;2.80;1.23;;;;;;;;;;5030512;28;20053;-71
2022/11/18 01:45:37;;;;;;;5.38;1.45;;;;;;;;;;5033022;28;20114;-70
2022/11/18 01:48:28;;;;;;;6.70;1.20;;;;;;;;;;5028344;28;20297;-70
2022/11/18 01:51:01;;;;;;;5.28;1.20;;;;;;;;;;5033088;28;20061;-70
2022/11/18 01:53:31;;;;;;;4.97;1.25;;;;;;;;;;5011829;28;20053;-75
2022/11/18 01:56:00;;;;;;;4.47;1.17;;;;;;;;;;5031538;28;20400;-70
2022/11/18 01:58:31;;;;;;;4.32;1.30;;;;;;;;;;5031822;28;20058;-71
2022/11/18 02:00:57;;;;;;;6.68;1.33;;;;;;;;;;5012987;28;20277;-75
2022/11/18 02:03:24;;;;;;;5.25;1.20;;;;;;;;;;5029418;28;20521;-73
2022/11/18 02:05:52;;;;;;;5.28;1.38;;;;;;;;;;5031844;28;20049;-72
2022/11/18 02:08:19;;;;;;;4.20;1.25;;;;;;;;;;5012279;28;20049;-77
2022/11/18 02:10:45;;;;;;;6.43;1.52;;;;;;;;;;5017003;28;20662;-71
2022/11/18 02:13:11;;;;;;;7.13;1.55;;;;;;;;;;5031238;28;20048;-73
2022/11/18 02:15:56;;;;;;;9.23;1.73;;;;;;;;;;5035537;28;20502;-73
2022/11/18 02:18:34;;;;;;;8.00;1.50;;;;;;;;;;5027755;28;20053;-74
2022/11/18 02:21:41;;;;;;;8.75;1.95;;;;;;;;;;5032098;28;20080;-72
2022/11/18 02:24:27;;;;;;;5.50;1.30;;;;;;;;;;5031964;28;20051;-71
2022/11/18 02:27:01;;;;;;;7.18;1.65;;;;;;;;;;5028765;28;20408;-75
2022/11/18 02:30:03;;;;;;;4.22;1.40;;;;;;;;;;5011200;28;20056;-69
2022/11/18 02:32:38;;;;;;;3.75;1.13;;;;;;;;;;5030154;28;20060;-73
2022/11/18 02:35:21;;;;;;;5.75;1.33;;;;;;;;;;5034010;28;20048;-72
2022/11/18 02:37:53;;;;;;;5.85;1.45;;;;;;;;;;5017681;28;20045;-69
2022/11/18 02:40:32;;;;;;;7.18;1.38;;;;;;;;;;5032167;28;20434;-73
2022/11/18 02:43:05;;;;;;;6.05;1.50;;;;;;;;;;5031285;28;20060;-69
2022/11/18 02:45:32;;;;;;;6.85;1.75;;;;;;;;;;5028974;28;20061;-75
2022/11/18 02:48:06;;;;;;;4.20;1.30;;;;;;;;;;5032862;28;20146;-68
2022/11/18 02:50:34;;;;;;;5.18;1.23;;;;;;;;;;5036888;28;20131;-75
2022/11/18 02:53:04;;;;;;;6.72;1.35;;;;;;;;;;5036538;28;20501;-79
2022/11/18 02:55:33;;;;;;;10.18;1.55;;;;;;;;;;5037375;28;20056;-74
2022/11/18 02:58:01;;;;;;;4.00;1.33;;;;;;;;;;5034677;28;20083;-72
2022/11/18 03:00:27;;;;;;;5.15;1.45;;;;;;;;;;5035127;28;20053;-73
2022/11/18 03:02:53;;;;;;;5.45;1.42;;;;;;;;;;5018858;28;20580;-75
2022/11/18 03:05:27;;;;;;;5.65;1.30;;;;;;;;;;5034468;28;20057;-73
2022/11/18 03:07:58;;;;;;;7.18;1.33;;;;;;;;;;5039939;28;20044;-73
2022/11/18 03:10:31;;;;;;;4.57;1.23;;;;;;;;;;5037755;28;20623;-72
2022/11/18 03:13:12;;;;;;;4.75;1.20;;;;;;;;;;5039921;28;20045;-72
2022/11/18 03:16:01;;;;;;;5.25;1.33;;;;;;;;;;5020943;28;20075;-75
2022/11/18 03:18:29;;;;;;;6.10;1.55;;;;;;;;;;5029009;28;20406;-73
2022/11/18 03:21:10;;;;;;;6.25;1.33;;;;;;;;;;5019779;28;20064;-77
2022/11/18 03:23:46;;;;;;;6.43;1.10;;;;;;;;;;5037139;28;20052;-72
2022/11/18 03:26:21;;;;;;;4.55;1.42;;;;;;;;;;5035707;28;20045;-75
2022/11/18 03:28:55;;;;;;;6.75;1.50;;;;;;;;;;5030617;28;20056;-71
2022/11/18 03:31:49;;;;;;;7.80;1.70;;;;;;;;;;5040227;28;20119;-74
2022/11/18 03:34:44;;;;;;;6.60;1.60;;;;;;;;;;5049407;28;20056;-72
2022/11/18 03:37:14;;;;;;;6.88;1.48;;;;;;;;;;5046796;28;20045;-69
2022/11/18 03:39:47;;;;;;;5.55;1.40;;;;;;;;;;5042784;28;20052;-75
2022/11/18 03:42:21;;;;;;;4.10;1.20;;;;;;;;;;5035129;28;20041;-74
2022/11/18 03:44:53;;;;;;;6.50;1.90;;;;;;;;;;5043424;28;20349;-75
2022/11/18 03:47:33;;;;;;;5.50;1.60;;;;;;;;;;5041497;28;20048;-69
2022/11/18 03:50:07;;;;;;;9.57;1.40;;;;;;;;;;5041622;28;20394;-71
2022/11/18 03:52:35;;;;;;;7.13;1.93;;;;;;;;;;5039499;28;20049;-75
2022/11/18 03:55:10;;;;;;;7.32;1.38;;;;;;;;;;5019813;28;20044;-71
2022/11/18 03:58:11;;;;;;;7.20;1.63;;;;;;;;;;5037887;28;20041;-70
2022/11/18 04:00:41;;;;;;;7.63;1.60;;;;;;;;;;5028854;28;20333;-74
2022/11/18 04:03:08;;;;;;;5.82;1.42;;;;;;;;;;5035541;28;20139;-69
2022/11/18 04:05:38;;;;;;;5.10;1.42;;;;;;;;;;5034396;28;20061;-72
2022/11/18 04:08:09;;;;;;;7.45;1.90;;;;;;;;;;5019652;28;20065;-72
2022/11/18 04:10:50;;;;;;;7.35;1.73;;;;;;;;;;5030289;28;20642;-72
2022/11/18 04:13:33;;;;;;;7.82;1.80;;;;;;;;;;5041707;28;20060;-70
2022/11/18 04:15:59;;;;;;;5.32;1.35;;;;;;;;;;5040350;28;20052;-75
2022/11/18 04:18:26;;;;;;;8.57;1.70;;;;;;;;;;5034242;28;20056;-72
2022/11/18 04:20:52;;;;;;;8.27;1.85;;;;;;;;;;5035164;28;20045;-70
2022/11/18 04:23:18;;;;;;;9.55;2.00;;;;;;;;;;5041559;28;20137;-72
2022/11/18 04:25:44;;;;;;;9.10;2.00;;;;;;;;;;5037278;28;20076;-75
2022/11/18 04:28:10;;;;;;;6.88;1.63;;;;;;;;;;5015100;28;20700;-72
2022/11/18 04:30:36;;;;;;;10.32;2.20;;;;;;;;;;5036275;28;20401;-71
2022/11/18 04:33:03;;;;;;;11.20;2.17;;;;;;;;;;5036741;28;20119;-71
2022/11/18 04:35:30;;;;;;;7.18;1.65;;;;;;;;;;5014619;28;20111;-67
2022/11/18 04:37:55;;;;;;;12.15;2.00;;;;;;;;;;5033251;28;20505;-71
2022/11/18 04:40:21;;;;;;;7.03;2.08;;;;;;;;;;5036767;28;20060;-73
2022/11/18 04:42:47;;;;;;;10.27;2.15;;;;;;;;;;5032635;28;20053;-73
2022/11/18 04:45:13;;;;;;;7.05;1.80;;;;;;;;;;5036295;28;20045;-73
2022/11/18 04:47:39;;;;;;;7.55;2.10;;;;;;;;;;5037272;28;20055;-72
2022/11/18 04:50:05;;;;;;;9.30;2.17;;;;;;;;;;5036419;28;20083;-71
2022/11/18 04:52:31;;;;;;;13.90;2.78;;;;;;;;;;5033413;28;20143;-74
2022/11/18 04:54:57;;;;;;;7.80;2.08;;;;;;;;;;5017984;28;20056;-70
2022/11/18 04:57:23;;;;;;;8.27;1.75;;;;;;;;;;5034102;28;20048;-73
2022/11/18 04:59:49;;;;;;;8.95;1.80;;;;;;;;;;5034632;28;20059;-71
2022/11/18 05:02:15;;;;;;;7.95;1.83;;;;;;;;;;5031897;28;20057;-71
2022/11/18 05:04:41;;;;;;;9.68;2.03;;;;;;;;;;5040812;28;20182;-71
2022/11/18 05:07:07;;;;;;;10.80;2.35;;;;;;;;;;5032844;28;20045;-69
2022/11/18 05:09:33;;;;;;;9.98;2.45;;;;;;;;;;5026369;28;20050;-69
2022/11/18 05:14:44;;;;;;;9.07;1.60;;;;;;;;;;5032160;28;20049;-74
2022/11/18 05:17:11;;;;;;;8.07;1.90;;;;;;;;;;5036763;28;20064;-74
2022/11/18 05:19:38;;;;;;;9.32;2.10;;;;;;;;;;5033408;28;20115;-71
2022/11/18 05:22:05;;;;;;;11.27;1.88;;;;;;;;;;5038571;28;20119;-72
2022/11/18 05:24:31;;;;;;;13.48;2.25;;;;;;;;;;5040018;28;20079;-69
2022/11/18 05:26:56;;;;;;;10.10;2.10;;;;;;;;;;5030985;28;20064;-73
2022/11/18 05:29:23;;;;;;;7.97;1.73;;;;;;;;;;5029368;28;20061;-73
2022/11/18 05:31:49;;;;;;;7.05;1.73;;;;;;;;;;5024015;28;20053;-70
2022/11/18 05:34:16;;;;;;;11.00;2.00;;;;;;;;;;5030812;28;20448;-71
2022/11/18 05:36:41;;;;;;;10.00;2.00;;;;;;;;;;5035104;28;20044;-70
2022/11/18 05:39:08;;;;;;;10.82;1.80;;;;;;;;;;5031959;28;20056;-67
2022/11/18 05:44:18;;;;;;;14.85;2.17;;;;;;;;;;5027912;28;20060;-71
2022/11/18 05:46:43;;;;;;;8.85;2.00;;;;;;;;;;5028384;28;20372;-74
2022/11/18 05:49:10;;;;;;;10.73;2.35;;;;;;;;;;5033003;28;20049;-73
2022/11/18 05:51:35;;;;;;;11.15;1.90;;;;;;;;;;5037468;28;20049;-73
2022/11/18 05:54:03;;;;;;;8.35;2.03;;;;;;;;;;5037153;28;20053;-67
2022/11/18 05:56:34;;;;;;;11.52;3.03;;;;;;;;;;5035580;28;20053;-69
2022/11/18 05:59:00;;;;;;;10.15;1.90;;;;;;;;;;5031322;28;20682;-73
2022/11/18 06:01:40;;;;;;;11.57;3.42;;;;;;;;;;5030234;28;20048;-70
2022/11/18 06:04:26;;;;;;;15.82;2.47;;;;;;;;;;5031412;28;21131;-67
2022/11/18 06:06:57;;;;;;;10.75;2.38;;;;;;;;;;5015608;28;20044;-71
2022/11/18 06:09:27;;;;;;;10.40;2.30;;;;;;;;;;5035414;28;20056;-72
2022/11/18 06:11:57;;;;;;;11.05;2.60;;;;;;;;;;5037347;28;20049;-72
2022/11/18 06:14:32;;;;;;;14.65;2.45;;;;;;;;;;5037321;28;20430;-71
2022/11/18 06:17:03;;;;;;;9.82;2.00;;;;;;;;;;5033686;28;20617;-73
2022/11/18 06:19:30;;;;;;;11.65;2.63;;;;;;;;;;5034903;28;20083;-70
2022/11/18 06:21:58;;;;;;;9.68;2.05;;;;;;;;;;5018597;28;20075;-68
2022/11/18 06:24:24;;;;;;;10.73;2.05;;;;;;;;;;5039508;28;20130;-77
2022/11/18 06:26:50;;;;;;;10.68;2.22;;;;;;;;;;5035671;28;20049;-72
2022/11/18 06:29:19;;;;;;;13.73;2.40;;;;;;;;;;5031186;28;20037;-77
2022/11/18 06:31:44;;;;;;;10.23;2.33;;;;;;;;;;5032064;28;20616;-73
2022/11/18 06:34:11;;;;;;;6.85;2.05;;;;;;;;;;5037325;28;20049;-74
2022/11/18 06:36:36;;;;;;;7.32;2.08;;;;;;;;;;5033985;28;20414;-73
2022/11/18 06:39:03;;;;;;;9.02;1.90;;;;;;;;;;5031719;28;20049;-74
2022/11/18 06:41:30;;;;;;;9.80;2.22;;;;;;;;;;5043744;28;20113;-71
2022/11/18 06:43:56;;;;;;;10.48;2.40;;;;;;;;;;5043333;28;20064;-73
2022/11/18 06:49:06;;;;;;;11.70;2.28;;;;;;;;;;5034404;28;20075;-70
2022/11/18 06:51:32;;;;;;;11.00;2.28;;;;;;;;;;5042944;28;20360;-75
2022/11/18 06:53:58;;;;;;;13.07;1.88;;;;;;;;;;5047279;28;20082;-80
2022/11/18 06:56:24;;;;;;;6.65;1.98;;;;;;;;;;5039120;28;20647;-77
2022/11/18 06:58:55;;;;;;;7.53;2.03;;;;;;;;;;5035964;28;20098;-77
2022/11/18 07:01:23;;;;;;;9.13;1.98;;;;;;;;;;5038438;28;20063;-75
2022/11/18 07:03:50;;;;;;;9.80;2.08;;;;;;;;;;5043377;28;20063;-75
2022/11/18 07:06:25;;;;;;;13.25;2.08;;;;;;;;;;5044466;28;20059;-72
2022/11/18 07:08:52;;;;;;;9.07;1.80;;;;;;;;;;5044561;28;20044;-69
2022/11/18 07:11:20;;;;;;;6.65;1.80;;;;;;;;;;5041257;28;20045;-74
2022/11/18 07:13:46;;;;;;;8.55;2.05;;;;;;;;;;5040400;28;20056;-72
2022/11/18 07:16:20;;;;;;;11.98;1.80;;;;;;;;;;5031850;28;20072;-70
2022/11/18 07:18:48;;;;;;;9.85;2.10;;;;;;;;;;5017595;28;20354;-70
2022/11/18 07:21:16;;;;;;;9.60;1.98;;;;;;;;;;5031753;28;20074;-75
2022/11/18 07:23:43;;;;;;;14.23;2.00;;;;;;;;;;5047221;28;20060;-71
2022/11/18 07:26:09;;;;;;;11.73;2.78;;;;;;;;;;5048713;28;20058;-69
2022/11/18 07:28:36;;;;;;;10.60;1.90;;;;;;;;;;5046762;28;20104;-70
2022/11/18 07:31:04;;;;;;;10.98;2.05;;;;;;;;;;5056110;28;20140;-72
2022/11/18 07:33:32;;;;;;;5.75;1.60;;;;;;;;;;5042737;28;20056;-72
2022/11/18 07:36:02;;;;;;;10.93;2.05;;;;;;;;;;5049074;28;20121;-75
2022/11/18 07:38:29;;;;;;;10.13;1.70;;;;;;;;;;5036931;28;20486;-72
2022/11/18 07:40:55;;;;;;;7.45;1.58;;;;;;;;;;5039330;28;20419;-77
2022/11/18 07:43:21;;;;;;;12.40;1.85;;;;;;;;;;5030477;28;20056;-72
2022/11/18 07:45:47;;;;;;;12.75;2.20;;;;;;;;;;5032986;28;20052;-71
2022/11/18 07:48:12;;;;;;;8.07;1.92;;;;;;;;;;5032532;28;20521;-69
2022/11/18 07:50:38;;;;;;;9.68;1.88;;;;;;;;;;5030681;28;20114;-70
2022/11/18 07:53:04;;;;;;;9.02;2.05;;;;;;;;;;5035370;28;20041;-71
2022/11/18 07:55:30;;;;;;;14.63;2.00;;;;;;;;;;5036612;28;20052;-70
2022/11/18 07:57:56;;;;;;;8.98;2.00;;;;;;;;;;5031556;28;20045;-69
2022/11/18 08:00:22;;;;;;;10.80;2.83;;;;;;;;;;5028104;28;21391;-73
2022/11/18 08:02:49;;;;;;;9.02;1.88;;;;;;;;;;5037203;28;20064;-71
2022/11/18 08:05:15;;;;;;;9.02;1.80;;;;;;;;;;5035305;28;20059;-71
2022/11/18 08:07:41;;;;;;;9.77;2.08;;;;;;;;;;5034590;28;20042;-70
2022/11/18 08:10:07;;;;;;;12.70;2.10;;;;;;;;;;5016336;28;20049;-72
2022/11/18 08:12:33;;;;;;;8.23;2.10;;;;;;;;;;5038107;28;20056;-71
2022/11/18 08:14:59;;;;;;;9.02;2.42;;;;;;;;;;5037275;28;20055;-71
2022/11/18 08:17:25;;;;;;;13.70;3.10;;;;;;;;;;5031593;28;20064;-70
2022/11/18 08:19:51;;;;;;;12.77;3.40;;;;;;;;;;5035591;28;20055;-71
2022/11/18 08:22:19;;;;;;;15.07;4.07;;;;;;;;;;5034733;28;20095;-71
2022/11/18 08:24:46;;;;;;;10.65;3.75;;;;;;;;;;5032252;28;20044;-69
2022/11/18 08:27:13;;;;;;;11.15;4.97;;;;;;;;;;5034393;28;20439;-69
2022/11/18 08:29:38;;;;;;;11.73;3.40;;;;;;;;;;5028403;28;20064;-73
2022/11/18 08:32:05;;;;;;;11.00;3.55;;;;;;;;;;5031878;28;20797;-72
2022/11/18 08:34:31;;;;;;;9.77;3.47;;;;;;;;;;5033667;28;20053;-72
2022/11/18 08:36:57;;;;;;;9.75;3.20;;;;;;;;;;5037756;28;20425;-71
2022/11/18 08:39:23;;;;;;;10.90;3.70;;;;;;;;;;5031372;28;20213;-68
2022/11/18 08:41:49;;;;;;;8.18;3.40;;;;;;;;;;5030556;28;20044;-72
2022/11/18 08:44:15;;;;;;;14.18;4.25;;;;;;;;;;5033890;28;20483;-71
2022/11/18 08:46:44;;;;;;;8.90;2.90;;;;;;;;;;5034805;28;22622;-68
2022/11/18 08:49:10;;;;;;;6.63;2.20;;;;;;;;;;5035800;28;20154;-71
2022/11/18 08:51:36;;;;;;;7.75;2.42;;;;;;;;;;5038265;28;20144;-69
2022/11/18 08:54:03;;;;;;;6.22;1.90;;;;;;;;;;5037868;28;20332;-71
2022/11/18 08:56:29;;;;;;;11.43;2.05;;;;;;;;;;5039958;28;20053;-70
2022/11/18 08:58:55;;;;;;;9.73;1.75;;;;;;;;;;5038096;28;20087;-71
2022/11/18 09:01:21;;;;;;;6.60;2.05;;;;;;;;;;5036241;28;20056;-70
2022/11/18 09:03:48;;;;;;;10.93;2.13;;;;;;;;;;5034408;28;20052;-70
2022/11/18 09:06:19;;;;;;;11.40;1.90;;;;;;;;;;5041853;28;20506;-71
2022/11/18 09:08:46;;;;;;;6.18;2.05;;;;;;;;;;5033818;28;20045;-71
2022/11/18 09:11:18;;;;;;;7.25;2.47;;;;;;;;;;5042633;28;20730;-71
2022/11/18 09:13:44;;;;;;;5.88;1.50;;;;;;;;;;5035867;28;20256;-71
2022/11/18 09:16:12;;;;;;;6.88;1.60;;;;;;;;;;5040697;28;20435;-72
2022/11/18 09:18:38;;;;;;;4.63;1.67;;;;;;;;;;5035343;28;21392;-70
2022/11/18 09:21:07;;;;;;;6.07;1.40;;;;;;;;;;5036816;28;20048;-70
2022/11/18 09:23:34;;;;;;;7.30;1.95;;;;;;;;;;5038485;28;20049;-70
2022/11/18 09:26:07;;;;;;;9.05;2.28;;;;;;;;;;5017970;28;20932;-73
2022/11/18 09:28:34;;;;;;;10.00;2.03;;;;;;;;;;5031168;28;20052;-69
2022/11/18 09:31:05;;;;;;;6.20;1.58;;;;;;;;;;5033754;28;20052;-70
2022/11/18 09:33:31;;;;;;;6.85;1.73;;;;;;;;;;5037324;28;20455;-71
2022/11/18 09:35:57;;;;;;;8.68;1.90;;;;;;;;;;5038538;28;20388;-70
2022/11/18 09:38:23;;;;;;;8.88;1.83;;;;;;;;;;5034470;28;20465;-71
2022/11/18 09:41:07;;;;;;;9.10;1.58;;;;;;;;;;5035350;28;20053;-71
2022/11/18 09:43:46;;;;;;;10.55;1.83;;;;;;;;;;5037873;28;20049;-70
2022/11/18 09:46:27;;;;;;;7.70;2.20;;;;;;;;;;5037279;28;20056;-69
2022/11/18 09:49:13;;;;;;;8.05;1.60;;;;;;;;;;5028721;28;20474;-71
2022/11/18 09:51:45;;;;;;;8.00;1.90;;;;;;;;;;5038953;28;20049;-68
2022/11/18 09:54:21;;;;;;;7.43;1.63;;;;;;;;;;5038783;28;20154;-69
2022/11/18 09:56:50;;;;;;;10.02;1.60;;;;;;;;;;5036558;28;20367;-70
2022/11/18 09:59:21;;;;;;;5.28;1.80;;;;;;;;;;5040689;28;20101;-69
2022/11/18 10:01:51;;;;;;;7.78;1.63;;;;;;;;;;5035004;28;20127;-70
2022/11/18 10:04:18;;;;;;;6.95;1.70;;;;;;;;;;5040204;28;20402;-69
2022/11/18 10:06:46;;;;;;;8.02;1.73;;;;;;;;;;5039893;28;20054;-71
2022/11/18 10:09:26;;;;;;;6.40;1.95;;;;;;;;;;5038400;28;20083;-72
2022/11/18 10:12:10;;;;;;;6.60;2.05;;;;;;;;;;5035610;28;20057;-72
2022/11/18 10:15:07;;;;;;;7.70;2.60;;;;;;;;;;5041595;28;20057;-70
2022/11/18 10:17:50;;;;;;;4.72;2.13;;;;;;;;;;5041784;28;20045;-73
2022/11/18 10:20:34;;;;;;;11.05;1.90;;;;;;;;;;5042128;28;20139;-71
2022/11/18 10:23:06;;;;;;;;;;;;;;;;;;5043331;28;20332;-70
2022/11/18 10:25:32;;;;;;;11.90;2.30;;;;;;;;;;5041475;28;19928;-69
2022/11/18 10:28:14;;;;;;;14.43;3.03;;;;;;;;;;5037017;28;20553;-72
2022/11/18 10:30:39;;;;;;;11.27;3.13;;;;;;;;;;5041458;28;20044;-72
2022/11/18 10:33:27;;;;;;;9.27;3.28;;;;;;;;;;5023838;28;20415;-71
2022/11/18 10:36:16;;;;;;;6.60;2.33;;;;;;;;;;5030581;28;20641;-71
2022/11/18 10:38:43;;;;;;;6.38;1.90;;;;;;;;;;5033654;28;20044;-68
2022/11/18 10:41:14;;;;;;;5.25;1.80;;;;;;;;;;5038715;28;20053;-71
2022/11/18 10:43:54;;;;;;;6.43;2.40;;;;;;;;;;5040015;28;20056;-70
2022/11/18 10:46:32;;;;;;;6.28;2.08;;;;;;;;;;5040751;28;20055;-69
2022/11/18 10:49:10;;;;;;;8.70;2.20;;;;;;;;;;5035425;28;20348;-69
2022/11/18 10:51:40;;;;;;;5.50;2.03;;;;;;;;;;5042117;28;20072;-69
2022/11/18 10:54:09;;;;;;;7.05;2.15;;;;;;;;;;5039684;28;20060;-72
2022/11/18 10:56:59;;;;;;;6.53;1.35;;;;;;;;;;5038451;28;20052;-70
2022/11/18 10:59:37;;;;;;;3.05;1.45;;;;;;;;;;5037456;28;20048;-71
2022/11/18 11:02:45;;;;;;;2.47;1.30;;;;;;;;;;5037596;28;20438;-71
2022/11/18 11:05:22;;;;;;;5.47;2.25;;;;;;;;;;5030932;28;20049;-68
2022/11/18 11:08:20;;;;;;;8.07;1.92;;;;;;;;;;5043247;28;20037;-69
2022/11/18 11:10:58;;;;;;;5.65;1.95;;;;;;;;;;5041531;28;20057;-71
2022/11/18 11:13:29;;;;;;;4.10;2.05;;;;;;;;;;5037166;28;20414;-68
2022/11/18 11:16:00;;;;;;;8.93;1.40;;;;;;;;;;5043850;28;20048;-69
2022/11/18 11:18:42;;;;;;;3.72;1.45;;;;;;;;;;5031535;28;20069;-69
2022/11/18 11:21:17;;;;;;;4.25;1.05;;;;;;;;;;5039741;28;20514;-69
2022/11/18 11:23:44;;;;;;;4.90;1.20;;;;;;;;;;5039177;28;20044;-69
2022/11/18 11:26:45;;;;;;;2.85;0.90;;;;;;;;;;5023012;28;20513;-71
2022/11/18 11:29:48;;;;;;;3.78;1.20;;;;;;;;;;5037274;28;20044;-71
2022/11/18 11:32:28;;;;;;;7.57;1.15;;;;;;;;;;5038881;28;20425;-71
2022/11/18 11:35:18;;;;;;;4.40;1.40;;;;;;;;;;5036643;28;20159;-70
2022/11/18 11:38:14;;;;;;;4.28;1.20;;;;;;;;;;5033597;28;20049;-70
2022/11/18 11:40:52;;;;;;;2.45;1.20;;;;;;;;;;5020443;28;20044;-69
2022/11/18 11:43:38;;;;;;;3.75;1.10;;;;;;;;;;5029300;28;20617;-70
2022/11/18 11:46:07;;;;;;;3.80;1.15;;;;;;;;;;5030616;28;20191;-71
2022/11/18 11:48:45;;;;;;;7.05;1.27;;;;;;;;;;5040086;28;20061;-69
2022/11/18 11:51:19;;;;;;;4.13;0.95;;;;;;;;;;5038581;28;20166;-69
2022/11/18 11:54:06;;;;;;;6.25;1.50;;;;;;;;;;5040817;28;20348;-72
2022/11/18 11:56:54;;;;;;;3.45;1.13;;;;;;;;;;5037449;28;20522;-71
2022/11/18 11:59:29;;;;;;;2.28;0.80;;;;;;;;;;5035325;28;20128;-72
2022/11/18 12:02:16;;;;;;;14.48;1.25;;;;;;;;;;5037304;28;20083;-71
2022/11/18 12:04:51;;;;;;;3.72;0.90;;;;;;;;;;5040335;28;20486;-70
2022/11/18 12:07:28;;;;;;;3.35;1.38;;;;;;;;;;5037415;28;20223;-70
2022/11/18 12:10:25;;;;;;;7.07;1.15;;;;;;;;;;5032585;28;20451;-71
2022/11/18 12:12:57;;;;;;;4.10;1.15;;;;;;;;;;5019352;28;20361;-70
2022/11/18 12:15:42;;;;;;;3.20;0.93;;;;;;;;;;5031649;28;20640;-69
2022/11/18 12:18:13;;;;;;;7.13;1.45;;;;;;;;;;5039095;28;20053;-71
2022/11/18 12:20:43;;;;;;;2.38;1.05;;;;;;;;;;5035918;28;20045;-69
2022/11/18 12:23:30;;;;;;;2.67;1.17;;;;;;;;;;5040512;28;20056;-71
2022/11/18 12:25:59;;;;;;;3.30;1.30;;;;;;;;;;5041084;28;20483;-73
2022/11/18 12:28:30;;;;;;;4.10;1.08;;;;;;;;;;5030240;28;20076;-69
2022/11/18 12:31:14;;;;;;;4.07;1.52;;;;;;;;;;5034124;28;20656;-71
2022/11/18 12:33:52;;;;;;;1.92;0.90;;;;;;;;;;5041990;28;20064;-66
2022/11/18 12:36:28;;;;;;;3.55;1.20;;;;;;;;;;5036288;28;20321;-66
2022/11/18 12:38:55;;;;;;;3.13;1.30;;;;;;;;;;5031128;28;20107;-68
2022/11/18 12:44:26;;;;;;;5.47;1.38;;;;;;;;;;5037805;28;20044;-68
2022/11/18 12:46:52;;;;;;;7.75;1.45;;;;;;;;;;5040943;28;20040;-70
2022/11/18 12:49:21;;;;;;;4.20;1.38;;;;;;;;;;5036987;28;20608;-72
2022/11/18 12:51:49;;;;;;;4.65;1.45;;;;;;;;;;5040733;28;20067;-69
2022/11/18 12:54:29;;;;;;;6.55;1.75;;;;;;;;;;5036760;28;20078;-71
2022/11/18 12:57:01;;;;;;;3.55;1.33;;;;;;;;;;5036690;28;20053;-72
2022/11/18 12:59:30;;;;;;;3.72;1.50;;;;;;;;;;5036116;28;20090;-70
2022/11/18 13:02:04;;;;;;;3.10;1.27;;;;;;;;;;5036152;28;20099;-71
2022/11/18 13:04:30;;;;;;;3.38;1.52;;;;;;;;;;5036944;28;20478;-72
2022/11/18 13:06:59;;;;;;;3.33;1.40;;;;;;;;;;5035823;28;20482;-72
2022/11/18 13:09:28;;;;;;;5.95;1.50;;;;;;;;;;5034556;28;20089;-69
2022/11/18 13:11:57;;;;;;;5.18;1.20;;;;;;;;;;5032162;28;20049;-73
2022/11/18 13:20:23;;;;;;;2.80;1.05;;;;;;;;;;5035606;28;20105;-71
2022/11/18 13:25:36;;;;;;;3.42;1.27;;;;;;;;;;5037876;28;20073;-73
2022/11/18 13:28:16;;;;;;;4.85;1.20;;;;;;;;;;5029257;28;20052;-69
2022/11/18 13:30:53;;;;;;;6.20;1.20;;;;;;;;;;5037682;28;20423;-72
2022/11/18 13:33:19;;;;;;;2.28;1.00;;;;;;;;;;5029830;28;20560;-71
2022/11/18 13:35:45;;;;;;;5.25;1.30;;;;;;;;;;5035807;28;20079;-71
2022/11/18 13:38:23;;;;;;;4.93;1.20;;;;;;;;;;5028614;28;20047;-70
2022/11/18 13:41:12;;;;;;;1.55;0.90;;;;;;;;;;5032974;28;20130;-71
2022/11/18 13:43:38;;;;;;;2.78;1.27;;;;;;;;;;5033011;28;20052;-70
2022/11/18 13:46:16;;;;;;;6.32;1.45;;;;;;;;;;5036736;28;20044;-72
2022/11/18 13:48:50;;;;;;;5.00;1.60;;;;;;;;;;5028819;28;20056;-73
2022/11/18 13:51:17;;;;;;;4.20;1.20;;;;;;;;;;5042896;28;20091;-70
2022/11/18 13:53:44;;;;;;;6.80;1.50;;;;;;;;;;5035004;28;20080;-71
2022/11/18 13:56:29;;;;;;;3.35;1.52;;;;;;;;;;5033268;28;20535;-71
2022/11/18 13:58:59;;;;;;;6.70;1.83;;;;;;;;;;5028499;28;20115;-69
2022/11/18 14:01:31;;;;;;;7.75;1.30;;;;;;;;;;5035574;28;20413;-70
2022/11/18 14:04:00;;;;;;;3.40;1.38;;;;;;;;;;5040176;28;20056;-71
2022/11/18 14:06:31;;;;;;;3.45;1.20;;;;;;;;;;5036655;28;20083;-72
2022/11/18 14:09:18;;;;;;;3.85;1.30;;;;;;;;;;5034540;28;20045;-72
2022/11/18 14:11:56;;;;;;;4.50;1.63;;;;;;;;;;5036065;28;20045;-71
2022/11/18 14:14:37;;;;;;;5.32;1.50;;;;;;;;;;5029247;28;20428;-71
2022/11/18 14:17:27;;;;;;;3.05;1.23;;;;;;;;;;5039935;28;20078;-70
2022/11/18 14:19:58;;;;;;;4.85;1.33;;;;;;;;;;5007301;28;20054;-74
2022/11/18 14:22:30;;;;;;;2.28;0.95;;;;;;;;;;5012025;28;20411;-73
2022/11/18 14:24:59;;;;;;;3.88;1.27;;;;;;;;;;5002194;28;20135;-72
2022/11/18 14:27:37;;;;;;;5.35;1.20;;;;;;;;;;4994829;28;20054;-72
2022/11/18 14:30:25;;;;;;;6.72;1.30;;;;;;;;;;4989717;28;20096;-76
2022/11/18 14:33:19;;;;;;;4.63;1.13;;;;;;;;;;4996913;28;20907;-70
2022/11/18 14:35:52;;;;;;;4.65;1.48;;;;;;;;;;4996968;28;20400;-73
2022/11/18 14:38:22;;;;;;;4.50;1.45;;;;;;;;;;4996202;28;20795;-69
2022/11/18 14:40:56;;;;;;;8.10;1.25;;;;;;;;;;4995663;28;20785;-73
2022/11/18 14:43:23;;;;;;;5.47;1.75;;;;;;;;;;4996016;28;20407;-72
2022/11/18 14:45:49;;;;;;;5.10;1.30;;;;;;;;;;4993630;28;20053;-72
2022/11/18 14:48:19;;;;;;;8.88;1.60;;;;;;;;;;4991830;28;20061;-70
2022/11/18 14:50:46;;;;;;;5.40;1.30;;;;;;;;;;4996203;28;20235;-70
2022/11/18 14:53:12;;;;;;;5.65;1.45;;;;;;;;;;4990676;28;20077;-72
2022/11/18 14:55:39;;;;;;;9.73;1.92;;;;;;;;;;4990710;28;20127;-69
2022/11/18 14:58:11;;;;;;;2.97;1.17;;;;;;;;;;5012026;28;20108;-72
2022/11/18 15:00:38;;;;;;;3.10;1.05;;;;;;;;;;5002225;28;20057;-70
2022/11/18 15:03:04;;;;;;;6.90;1.40;;;;;;;;;;5004083;28;20077;-70
2022/11/18 15:05:30;;;;;;;4.38;1.10;;;;;;;;;;4999182;28;20456;-75
2022/11/18 15:07:56;;;;;;;14.40;1.40;;;;;;;;;;4997039;28;20045;-73
2022/11/18 15:10:22;;;;;;;3.40;1.15;;;;;;;;;;5004145;28;20054;-71
2022/11/18 15:12:48;;;;;;;5.85;1.65;;;;;;;;;;5009590;28;20053;-72
2022/11/18 15:15:14;;;;;;;3.17;1.00;;;;;;;;;;5000717;28;20054;-73
2022/11/18 15:17:39;;;;;;;3.85;1.10;;;;;;;;;;5000300;28;20053;-73
2022/11/18 15:20:11;;;;;;;3.90;1.10;;;;;;;;;;5033299;28;20524;-72
2022/11/18 15:22:37;;;;;;;1.50;0.60;;;;;;;;;;5042183;28;20107;-71
2022/11/18 15:25:03;;;;;;;1.75;0.80;;;;;;;;;;5039950;28;20728;-73
2022/11/18 15:27:29;;;;;;;4.15;1.00;;;;;;;;;;5035295;28;20064;-72
2022/11/18 15:29:55;;;;;;;4.78;1.10;;;;;;;;;;5038200;28;20123;-71